sensor_id;sensor_type;location;lat;lon;timestamp;P1;durP1;ratioP1;P2;durP2;ratioP2
13238;SDS011;6686;51.292;4.166;2023-09-07T00:02:02;6.30;;;5.47;;
13238;SDS011;6686;51.292;4.166;2023-09-07T00:04:50;7.00;;;6.30;;
13238;SDS011;6686;51.292;4.166;2023-09-07T00:07:36;7.63;;;5.77;;
13238;SDS011;6686;51.292;4.166;2023-09-07T00:10:23;8.30;;;6.68;;
13238;SDS011;6686;51.292;4.166;2023-09-07T00:13:08;7.37;;;6.00;;
13238;SDS011;6686;51.292;4.166;2023-09-07T00:15:57;6.30;;;5.70;;
13238;SDS011;6686;51.292;4.166;2023-09-07T00:18:40;6.90;;;5.70;;
13238;SDS011;6686;51.292;4.166;2023-09-07T00:21:27;7.03;;;5.70;;
13238;SDS011;6686;51.292;4.166;2023-09-07T00:24:13;9.53;;;6.27;;
13238;SDS011;6686;51.292;4.166;2023-09-07T00:26:59;6.90;;;5.97;;
13238;SDS011;6686;51.292;4.166;2023-09-07T00:29:45;7.30;;;5.60;;
13238;SDS011;6686;51.292;4.166;2023-09-07T00:32:38;8.57;;;5.93;;
13238;SDS011;6686;51.292;4.166;2023-09-07T00:35:23;6.63;;;5.80;;
13238;SDS011;6686;51.292;4.166;2023-09-07T00:38:09;8.30;;;5.63;;
13238;SDS011;6686;51.292;4.166;2023-09-07T00:40:55;6.37;;;5.77;;
13238;SDS011;6686;51.292;4.166;2023-09-07T00:43:41;10.37;;;6.40;;
13238;SDS011;6686;51.292;4.166;2023-09-07T00:46:27;7.27;;;5.67;;
13238;SDS011;6686;51.292;4.166;2023-09-07T00:49:13;6.78;;;6.00;;
13238;SDS011;6686;51.292;4.166;2023-09-07T00:51:59;7.07;;;6.37;;
13238;SDS011;6686;51.292;4.166;2023-09-07T00:54:45;7.83;;;5.80;;
13238;SDS011;6686;51.292;4.166;2023-09-07T00:57:31;7.68;;;6.53;;
13238;SDS011;6686;51.292;4.166;2023-09-07T01:00:17;10.57;;;6.47;;
13238;SDS011;6686;51.292;4.166;2023-09-07T01:03:03;6.73;;;6.00;;
13238;SDS011;6686;51.292;4.166;2023-09-07T01:05:56;9.07;;;6.33;;
13238;SDS011;6686;51.292;4.166;2023-09-07T01:08:40;7.27;;;6.57;;
13238;SDS011;6686;51.292;4.166;2023-09-07T01:11:24;8.37;;;6.47;;
13238;SDS011;6686;51.292;4.166;2023-09-07T01:14:10;8.03;;;6.93;;
13238;SDS011;6686;51.292;4.166;2023-09-07T01:16:56;7.47;;;6.80;;
13238;SDS011;6686;51.292;4.166;2023-09-07T01:19:42;7.57;;;6.80;;
13238;SDS011;6686;51.292;4.166;2023-09-07T01:22:28;9.50;;;7.23;;
13238;SDS011;6686;51.292;4.166;2023-09-07T01:25:14;9.30;;;7.27;;
13238;SDS011;6686;51.292;4.166;2023-09-07T01:28:00;8.53;;;7.17;;
13238;SDS011;6686;51.292;4.166;2023-09-07T01:30:46;9.07;;;6.63;;
13238;SDS011;6686;51.292;4.166;2023-09-07T01:33:32;8.27;;;7.30;;
13238;SDS011;6686;51.292;4.166;2023-09-07T01:36:18;8.60;;;6.70;;
13238;SDS011;6686;51.292;4.166;2023-09-07T01:39:04;8.27;;;6.97;;
13238;SDS011;6686;51.292;4.166;2023-09-07T01:41:49;9.67;;;7.60;;
13238;SDS011;6686;51.292;4.166;2023-09-07T01:44:35;8.73;;;7.57;;
13238;SDS011;6686;51.292;4.166;2023-09-07T01:47:21;9.83;;;8.83;;
13238;SDS011;6686;51.292;4.166;2023-09-07T01:50:07;11.17;;;10.13;;
13238;SDS011;6686;51.292;4.166;2023-09-07T01:52:53;10.30;;;9.30;;
13238;SDS011;6686;51.292;4.166;2023-09-07T01:55:40;10.07;;;9.07;;
13238;SDS011;6686;51.292;4.166;2023-09-07T01:58:26;9.50;;;8.60;;
13238;SDS011;6686;51.292;4.166;2023-09-07T02:01:26;10.10;;;9.10;;
13238;SDS011;6686;51.292;4.166;2023-09-07T02:04:10;9.55;;;8.63;;
13238;SDS011;6686;51.292;4.166;2023-09-07T02:06:56;10.35;;;9.25;;
13238;SDS011;6686;51.292;4.166;2023-09-07T02:09:42;9.50;;;8.50;;
13238;SDS011;6686;51.292;4.166;2023-09-07T02:12:28;9.63;;;8.23;;
13238;SDS011;6686;51.292;4.166;2023-09-07T02:15:14;10.40;;;8.37;;
13238;SDS011;6686;51.292;4.166;2023-09-07T02:18:00;8.97;;;7.90;;
13238;SDS011;6686;51.292;4.166;2023-09-07T02:20:46;9.63;;;7.97;;
13238;SDS011;6686;51.292;4.166;2023-09-07T02:23:32;8.90;;;8.00;;
13238;SDS011;6686;51.292;4.166;2023-09-07T02:26:18;10.87;;;8.00;;
13238;SDS011;6686;51.292;4.166;2023-09-07T02:29:04;8.30;;;7.50;;
13238;SDS011;6686;51.292;4.166;2023-09-07T02:31:49;10.30;;;7.83;;
13238;SDS011;6686;51.292;4.166;2023-09-07T02:34:35;8.63;;;7.00;;
13238;SDS011;6686;51.292;4.166;2023-09-07T02:37:21;9.00;;;7.30;;
13238;SDS011;6686;51.292;4.166;2023-09-07T02:40:07;12.30;;;7.50;;
13238;SDS011;6686;51.292;4.166;2023-09-07T02:42:53;8.68;;;7.62;;
13238;SDS011;6686;51.292;4.166;2023-09-07T02:45:40;7.63;;;6.63;;
13238;SDS011;6686;51.292;4.166;2023-09-07T02:48:26;9.03;;;7.67;;
13238;SDS011;6686;51.292;4.166;2023-09-07T02:51:12;8.77;;;6.87;;
13238;SDS011;6686;51.292;4.166;2023-09-07T02:53:58;9.90;;;7.10;;
13238;SDS011;6686;51.292;4.166;2023-09-07T02:56:44;8.47;;;6.90;;
13238;SDS011;6686;51.292;4.166;2023-09-07T02:59:29;11.03;;;6.90;;
13238;SDS011;6686;51.292;4.166;2023-09-07T03:02:16;8.03;;;7.13;;
13238;SDS011;6686;51.292;4.166;2023-09-07T03:05:02;8.57;;;7.63;;
13238;SDS011;6686;51.292;4.166;2023-09-07T03:07:47;10.13;;;7.50;;
13238;SDS011;6686;51.292;4.166;2023-09-07T03:10:34;9.63;;;8.63;;
13238;SDS011;6686;51.292;4.166;2023-09-07T03:13:19;9.63;;;8.30;;
13238;SDS011;6686;51.292;4.166;2023-09-07T03:16:05;9.00;;;7.47;;
13238;SDS011;6686;51.292;4.166;2023-09-07T03:18:51;9.50;;;7.80;;
13238;SDS011;6686;51.292;4.166;2023-09-07T03:21:37;9.57;;;7.77;;
13238;SDS011;6686;51.292;4.166;2023-09-07T03:24:23;10.10;;;8.23;;
13238;SDS011;6686;51.292;4.166;2023-09-07T03:27:10;9.63;;;7.87;;
13238;SDS011;6686;51.292;4.166;2023-09-07T03:29:55;9.87;;;8.50;;
13238;SDS011;6686;51.292;4.166;2023-09-07T03:32:41;11.83;;;9.47;;
13238;SDS011;6686;51.292;4.166;2023-09-07T03:35:27;10.17;;;9.07;;
13238;SDS011;6686;51.292;4.166;2023-09-07T03:38:13;9.87;;;8.87;;
13238;SDS011;6686;51.292;4.166;2023-09-07T03:40:59;12.03;;;8.53;;
13238;SDS011;6686;51.292;4.166;2023-09-07T03:43:45;10.20;;;8.17;;
13238;SDS011;6686;51.292;4.166;2023-09-07T03:46:31;10.40;;;8.93;;
13238;SDS011;6686;51.292;4.166;2023-09-07T03:49:17;11.07;;;8.60;;
13238;SDS011;6686;51.292;4.166;2023-09-07T03:52:03;10.40;;;8.10;;
13238;SDS011;6686;51.292;4.166;2023-09-07T03:54:49;9.00;;;7.87;;
13238;SDS011;6686;51.292;4.166;2023-09-07T03:57:34;11.13;;;9.23;;
13238;SDS011;6686;51.292;4.166;2023-09-07T04:00:20;10.40;;;8.53;;
13238;SDS011;6686;51.292;4.166;2023-09-07T04:03:06;12.07;;;8.77;;
13238;SDS011;6686;51.292;4.166;2023-09-07T04:05:52;10.97;;;8.20;;
13238;SDS011;6686;51.292;4.166;2023-09-07T04:08:38;10.23;;;8.47;;
13238;SDS011;6686;51.292;4.166;2023-09-07T04:11:24;11.73;;;8.70;;
13238;SDS011;6686;51.292;4.166;2023-09-07T04:14:09;11.37;;;9.03;;
13238;SDS011;6686;51.292;4.166;2023-09-07T04:16:56;11.57;;;9.23;;
13238;SDS011;6686;51.292;4.166;2023-09-07T04:19:41;8.87;;;7.90;;
13238;SDS011;6686;51.292;4.166;2023-09-07T04:22:27;9.87;;;8.90;;
13238;SDS011;6686;51.292;4.166;2023-09-07T04:25:13;12.10;;;8.80;;
13238;SDS011;6686;51.292;4.166;2023-09-07T04:27:58;9.87;;;8.87;;
13238;SDS011;6686;51.292;4.166;2023-09-07T04:30:44;12.23;;;9.53;;
13238;SDS011;6686;51.292;4.166;2023-09-07T04:33:31;10.53;;;8.70;;
13238;SDS011;6686;51.292;4.166;2023-09-07T04:36:16;15.13;;;9.60;;
13238;SDS011;6686;51.292;4.166;2023-09-07T04:39:02;11.83;;;9.03;;
13238;SDS011;6686;51.292;4.166;2023-09-07T04:41:48;11.47;;;9.70;;
13238;SDS011;6686;51.292;4.166;2023-09-07T04:44:34;11.90;;;8.83;;
13238;SDS011;6686;51.292;4.166;2023-09-07T04:47:20;11.03;;;9.03;;
13238;SDS011;6686;51.292;4.166;2023-09-07T04:50:06;12.50;;;9.20;;
13238;SDS011;6686;51.292;4.166;2023-09-07T04:52:52;9.10;;;8.20;;
13238;SDS011;6686;51.292;4.166;2023-09-07T04:55:38;11.77;;;8.60;;
13238;SDS011;6686;51.292;4.166;2023-09-07T04:58:25;14.07;;;8.77;;
13238;SDS011;6686;51.292;4.166;2023-09-07T05:01:11;10.30;;;9.30;;
13238;SDS011;6686;51.292;4.166;2023-09-07T05:03:57;11.47;;;9.83;;
13238;SDS011;6686;51.292;4.166;2023-09-07T05:06:43;10.63;;;9.53;;
13238;SDS011;6686;51.292;4.166;2023-09-07T05:09:29;9.90;;;8.40;;
13238;SDS011;6686;51.292;4.166;2023-09-07T05:12:15;10.73;;;9.20;;
13238;SDS011;6686;51.292;4.166;2023-09-07T05:15:01;10.97;;;9.27;;
13238;SDS011;6686;51.292;4.166;2023-09-07T05:17:48;13.07;;;9.50;;
13238;SDS011;6686;51.292;4.166;2023-09-07T05:20:34;13.47;;;9.27;;
13238;SDS011;6686;51.292;4.166;2023-09-07T05:23:20;10.47;;;8.80;;
13238;SDS011;6686;51.292;4.166;2023-09-07T05:26:06;9.77;;;8.37;;
13238;SDS011;6686;51.292;4.166;2023-09-07T05:28:52;10.97;;;8.63;;
13238;SDS011;6686;51.292;4.166;2023-09-07T05:31:38;11.00;;;9.57;;
13238;SDS011;6686;51.292;4.166;2023-09-07T05:34:24;13.90;;;9.07;;
13238;SDS011;6686;51.292;4.166;2023-09-07T05:37:10;12.37;;;10.40;;
13238;SDS011;6686;51.292;4.166;2023-09-07T05:39:56;13.10;;;10.73;;
13238;SDS011;6686;51.292;4.166;2023-09-07T05:42:42;12.20;;;9.60;;
13238;SDS011;6686;51.292;4.166;2023-09-07T05:45:33;10.40;;;9.30;;
13238;SDS011;6686;51.292;4.166;2023-09-07T05:48:17;11.27;;;8.80;;
13238;SDS011;6686;51.292;4.166;2023-09-07T05:51:03;10.93;;;9.77;;
13238;SDS011;6686;51.292;4.166;2023-09-07T05:53:49;9.70;;;8.43;;
13238;SDS011;6686;51.292;4.166;2023-09-07T05:56:35;9.87;;;8.80;;
13238;SDS011;6686;51.292;4.166;2023-09-07T05:59:21;12.30;;;9.80;;
13238;SDS011;6686;51.292;4.166;2023-09-07T06:02:07;12.90;;;10.00;;
13238;SDS011;6686;51.292;4.166;2023-09-07T06:04:53;12.70;;;10.00;;
13238;SDS011;6686;51.292;4.166;2023-09-07T06:07:39;14.37;;;9.77;;
13238;SDS011;6686;51.292;4.166;2023-09-07T06:10:25;12.98;;;10.20;;
13238;SDS011;6686;51.292;4.166;2023-09-07T06:13:10;15.97;;;10.57;;
13238;SDS011;6686;51.292;4.166;2023-09-07T06:15:56;14.48;;;10.70;;
13238;SDS011;6686;51.292;4.166;2023-09-07T06:18:43;18.30;;;11.47;;
13238;SDS011;6686;51.292;4.166;2023-09-07T06:21:28;23.27;;;11.33;;
13238;SDS011;6686;51.292;4.166;2023-09-07T06:24:15;17.53;;;10.50;;
13238;SDS011;6686;51.292;4.166;2023-09-07T06:27:00;13.53;;;10.07;;
13238;SDS011;6686;51.292;4.166;2023-09-07T06:29:46;17.63;;;10.30;;
13238;SDS011;6686;51.292;4.166;2023-09-07T06:32:32;20.90;;;12.67;;
13238;SDS011;6686;51.292;4.166;2023-09-07T06:35:18;21.67;;;13.35;;
13238;SDS011;6686;51.292;4.166;2023-09-07T06:38:04;18.00;;;12.27;;
13238;SDS011;6686;51.292;4.166;2023-09-07T06:40:50;19.20;;;12.03;;
13238;SDS011;6686;51.292;4.166;2023-09-07T06:43:35;17.50;;;11.37;;
13238;SDS011;6686;51.292;4.166;2023-09-07T06:46:21;18.57;;;11.37;;
13238;SDS011;6686;51.292;4.166;2023-09-07T06:49:08;16.10;;;11.47;;
13238;SDS011;6686;51.292;4.166;2023-09-07T06:51:54;18.23;;;11.07;;
13238;SDS011;6686;51.292;4.166;2023-09-07T06:54:39;14.85;;;11.02;;
13238;SDS011;6686;51.292;4.166;2023-09-07T06:57:26;15.27;;;10.38;;
13238;SDS011;6686;51.292;4.166;2023-09-07T07:00:11;15.88;;;11.63;;
13238;SDS011;6686;51.292;4.166;2023-09-07T07:02:57;20.10;;;10.38;;
13238;SDS011;6686;51.292;4.166;2023-09-07T07:05:44;13.93;;;9.38;;
13238;SDS011;6686;51.292;4.166;2023-09-07T07:08:29;12.82;;;8.77;;
13238;SDS011;6686;51.292;4.166;2023-09-07T07:11:16;12.95;;;8.93;;
13238;SDS011;6686;51.292;4.166;2023-09-07T07:14:01;15.20;;;7.57;;
13238;SDS011;6686;51.292;4.166;2023-09-07T07:16:47;12.90;;;7.53;;
13238;SDS011;6686;51.292;4.166;2023-09-07T07:19:33;8.18;;;6.72;;
13238;SDS011;6686;51.292;4.166;2023-09-07T07:22:19;11.63;;;7.10;;
13238;SDS011;6686;51.292;4.166;2023-09-07T07:25:05;10.52;;;7.60;;
13238;SDS011;6686;51.292;4.166;2023-09-07T07:27:51;8.07;;;7.10;;
13238;SDS011;6686;51.292;4.166;2023-09-07T07:30:38;11.05;;;7.15;;
13238;SDS011;6686;51.292;4.166;2023-09-07T07:33:22;13.32;;;7.05;;
13238;SDS011;6686;51.292;4.166;2023-09-07T07:36:08;15.68;;;7.03;;
13238;SDS011;6686;51.292;4.166;2023-09-07T07:38:54;14.25;;;7.57;;
13238;SDS011;6686;51.292;4.166;2023-09-07T07:41:40;17.45;;;7.40;;
13238;SDS011;6686;51.292;4.166;2023-09-07T07:44:25;11.18;;;6.87;;
13238;SDS011;6686;51.292;4.166;2023-09-07T07:47:11;10.13;;;7.10;;
13238;SDS011;6686;51.292;4.166;2023-09-07T07:49:58;12.20;;;6.85;;
13238;SDS011;6686;51.292;4.166;2023-09-07T07:52:43;11.68;;;6.78;;
13238;SDS011;6686;51.292;4.166;2023-09-07T07:55:29;12.27;;;6.22;;
13238;SDS011;6686;51.292;4.166;2023-09-07T07:58:16;6.82;;;5.93;;
13238;SDS011;6686;51.292;4.166;2023-09-07T08:01:02;8.30;;;5.47;;
13238;SDS011;6686;51.292;4.166;2023-09-07T08:03:48;13.62;;;6.95;;
13238;SDS011;6686;51.292;4.166;2023-09-07T08:06:34;9.75;;;5.87;;
13238;SDS011;6686;51.292;4.166;2023-09-07T08:09:20;15.70;;;6.07;;
13238;SDS011;6686;51.292;4.166;2023-09-07T08:12:06;8.43;;;6.35;;
13238;SDS011;6686;51.292;4.166;2023-09-07T08:14:52;11.25;;;6.30;;
13238;SDS011;6686;51.292;4.166;2023-09-07T08:17:38;12.10;;;6.32;;
13238;SDS011;6686;51.292;4.166;2023-09-07T08:20:24;10.05;;;7.47;;
13238;SDS011;6686;51.292;4.166;2023-09-07T08:23:09;10.45;;;7.03;;
13238;SDS011;6686;51.292;4.166;2023-09-07T08:25:56;11.55;;;7.22;;
13238;SDS011;6686;51.292;4.166;2023-09-07T08:28:41;9.90;;;7.40;;
13238;SDS011;6686;51.292;4.166;2023-09-07T08:31:28;8.85;;;6.95;;
13238;SDS011;6686;51.292;4.166;2023-09-07T08:34:14;8.55;;;6.28;;
13238;SDS011;6686;51.292;4.166;2023-09-07T08:36:59;9.18;;;7.28;;
13238;SDS011;6686;51.292;4.166;2023-09-07T08:39:46;8.43;;;7.20;;
13238;SDS011;6686;51.292;4.166;2023-09-07T08:42:32;13.50;;;7.25;;
13238;SDS011;6686;51.292;4.166;2023-09-07T08:45:20;9.88;;;7.05;;
13238;SDS011;6686;51.292;4.166;2023-09-07T08:48:06;7.93;;;6.35;;
13238;SDS011;6686;51.292;4.166;2023-09-07T08:50:52;7.28;;;5.85;;
13238;SDS011;6686;51.292;4.166;2023-09-07T08:53:39;6.85;;;5.57;;
13238;SDS011;6686;51.292;4.166;2023-09-07T08:56:24;7.43;;;5.37;;
13238;SDS011;6686;51.292;4.166;2023-09-07T08:59:10;6.25;;;5.30;;
13238;SDS011;6686;51.292;4.166;2023-09-07T09:01:56;7.22;;;5.80;;
13238;SDS011;6686;51.292;4.166;2023-09-07T09:04:41;8.10;;;5.55;;
13238;SDS011;6686;51.292;4.166;2023-09-07T09:07:27;7.03;;;5.03;;
13238;SDS011;6686;51.292;4.166;2023-09-07T09:10:14;11.27;;;5.50;;
13238;SDS011;6686;51.292;4.166;2023-09-07T09:13:00;7.50;;;5.20;;
13238;SDS011;6686;51.292;4.166;2023-09-07T09:15:47;9.82;;;5.05;;
13238;SDS011;6686;51.292;4.166;2023-09-07T09:18:32;6.12;;;4.82;;
13238;SDS011;6686;51.292;4.166;2023-09-07T09:21:18;9.23;;;5.45;;
13238;SDS011;6686;51.292;4.166;2023-09-07T09:24:09;7.80;;;4.75;;
13238;SDS011;6686;51.292;4.166;2023-09-07T09:26:51;7.55;;;4.37;;
13238;SDS011;6686;51.292;4.166;2023-09-07T09:29:37;5.82;;;4.70;;
13238;SDS011;6686;51.292;4.166;2023-09-07T09:32:23;6.50;;;4.35;;
13238;SDS011;6686;51.292;4.166;2023-09-07T09:35:09;5.68;;;4.90;;
13238;SDS011;6686;51.292;4.166;2023-09-07T09:37:55;5.80;;;4.00;;
13238;SDS011;6686;51.292;4.166;2023-09-07T09:40:41;4.75;;;4.35;;
13238;SDS011;6686;51.292;4.166;2023-09-07T09:43:27;6.55;;;3.87;;
13238;SDS011;6686;51.292;4.166;2023-09-07T09:46:13;8.68;;;4.22;;
13238;SDS011;6686;51.292;4.166;2023-09-07T09:48:59;5.97;;;4.20;;
13238;SDS011;6686;51.292;4.166;2023-09-07T09:51:45;5.68;;;4.40;;
13238;SDS011;6686;51.292;4.166;2023-09-07T09:54:32;7.28;;;4.62;;
13238;SDS011;6686;51.292;4.166;2023-09-07T09:57:17;9.38;;;4.37;;
13238;SDS011;6686;51.292;4.166;2023-09-07T10:00:06;6.43;;;4.37;;
13238;SDS011;6686;51.292;4.166;2023-09-07T10:03:00;6.10;;;4.10;;
13238;SDS011;6686;51.292;4.166;2023-09-07T10:05:50;5.60;;;3.97;;
13238;SDS011;6686;51.292;4.166;2023-09-07T10:08:36;6.97;;;3.90;;
13238;SDS011;6686;51.292;4.166;2023-09-07T10:11:31;6.10;;;3.80;;
13238;SDS011;6686;51.292;4.166;2023-09-07T10:14:17;4.22;;;3.45;;
13238;SDS011;6686;51.292;4.166;2023-09-07T10:17:03;5.75;;;3.87;;
13238;SDS011;6686;51.292;4.166;2023-09-07T10:19:49;5.62;;;3.70;;
13238;SDS011;6686;51.292;4.166;2023-09-07T10:22:35;5.37;;;3.87;;
13238;SDS011;6686;51.292;4.166;2023-09-07T10:25:22;7.95;;;4.00;;
13238;SDS011;6686;51.292;4.166;2023-09-07T10:28:29;6.43;;;4.07;;
13238;SDS011;6686;51.292;4.166;2023-09-07T10:31:19;6.00;;;4.17;;
13238;SDS011;6686;51.292;4.166;2023-09-07T10:34:08;4.75;;;3.83;;
13238;SDS011;6686;51.292;4.166;2023-09-07T10:36:55;7.87;;;3.95;;
13238;SDS011;6686;51.292;4.166;2023-09-07T10:39:39;5.45;;;3.87;;
13238;SDS011;6686;51.292;4.166;2023-09-07T10:42:25;5.87;;;4.20;;
13238;SDS011;6686;51.292;4.166;2023-09-07T10:45:11;4.05;;;3.47;;
13238;SDS011;6686;51.292;4.166;2023-09-07T10:47:57;4.35;;;3.95;;
13238;SDS011;6686;51.292;4.166;2023-09-07T10:50:46;5.07;;;4.15;;
13238;SDS011;6686;51.292;4.166;2023-09-07T10:53:32;7.05;;;4.25;;
13238;SDS011;6686;51.292;4.166;2023-09-07T10:56:18;3.55;;;3.25;;
13238;SDS011;6686;51.292;4.166;2023-09-07T10:59:04;5.07;;;3.92;;
13238;SDS011;6686;51.292;4.166;2023-09-07T11:01:51;4.85;;;3.60;;
13238;SDS011;6686;51.292;4.166;2023-09-07T11:04:40;7.18;;;4.10;;
13238;SDS011;6686;51.292;4.166;2023-09-07T11:07:27;7.43;;;3.85;;
13238;SDS011;6686;51.292;4.166;2023-09-07T11:10:13;4.53;;;3.62;;
13238;SDS011;6686;51.292;4.166;2023-09-07T11:13:01;9.45;;;3.80;;
13238;SDS011;6686;51.292;4.166;2023-09-07T11:15:44;4.10;;;3.70;;
13238;SDS011;6686;51.292;4.166;2023-09-07T11:18:30;6.32;;;3.90;;
13238;SDS011;6686;51.292;4.166;2023-09-07T11:21:16;5.50;;;3.83;;
13238;SDS011;6686;51.292;4.166;2023-09-07T11:24:03;7.20;;;3.75;;
13238;SDS011;6686;51.292;4.166;2023-09-07T11:26:51;4.65;;;3.90;;
13238;SDS011;6686;51.292;4.166;2023-09-07T11:29:37;4.45;;;3.40;;
13238;SDS011;6686;51.292;4.166;2023-09-07T11:32:23;3.85;;;3.55;;
13238;SDS011;6686;51.292;4.166;2023-09-07T11:35:09;5.22;;;3.97;;
13238;SDS011;6686;51.292;4.166;2023-09-07T11:37:55;5.80;;;4.20;;
13238;SDS011;6686;51.292;4.166;2023-09-07T11:40:41;6.15;;;3.87;;
13238;SDS011;6686;51.292;4.166;2023-09-07T11:43:29;4.35;;;3.95;;
13238;SDS011;6686;51.292;4.166;2023-09-07T11:46:15;5.05;;;3.85;;
13238;SDS011;6686;51.292;4.166;2023-09-07T11:49:01;4.75;;;4.00;;
13238;SDS011;6686;51.292;4.166;2023-09-07T11:51:47;6.57;;;4.00;;
13238;SDS011;6686;51.292;4.166;2023-09-07T11:57:38;4.75;;;3.90;;
13238;SDS011;6686;51.292;4.166;2023-09-07T12:00:24;4.65;;;3.95;;
13238;SDS011;6686;51.292;4.166;2023-09-07T12:03:11;4.53;;;3.93;;
13238;SDS011;6686;51.292;4.166;2023-09-07T12:05:58;5.87;;;3.80;;
13238;SDS011;6686;51.292;4.166;2023-09-07T12:08:57;6.72;;;3.67;;
13238;SDS011;6686;51.292;4.166;2023-09-07T12:11:30;5.00;;;3.60;;
13238;SDS011;6686;51.292;4.166;2023-09-07T12:14:16;4.78;;;3.28;;
13238;SDS011;6686;51.292;4.166;2023-09-07T12:17:01;5.53;;;3.75;;
13238;SDS011;6686;51.292;4.166;2023-09-07T12:19:49;6.15;;;3.67;;
13238;SDS011;6686;51.292;4.166;2023-09-07T12:22:33;5.57;;;4.22;;
13238;SDS011;6686;51.292;4.166;2023-09-07T12:25:19;5.18;;;3.95;;
13238;SDS011;6686;51.292;4.166;2023-09-07T12:28:05;8.13;;;3.70;;
13238;SDS011;6686;51.292;4.166;2023-09-07T12:30:51;4.15;;;3.75;;
13238;SDS011;6686;51.292;4.166;2023-09-07T12:33:36;6.53;;;3.72;;
13238;SDS011;6686;51.292;4.166;2023-09-07T12:36:23;4.43;;;3.33;;
13238;SDS011;6686;51.292;4.166;2023-09-07T12:39:08;3.97;;;3.58;;
13238;SDS011;6686;51.292;4.166;2023-09-07T12:41:54;3.95;;;3.40;;
13238;SDS011;6686;51.292;4.166;2023-09-07T12:44:40;5.25;;;3.37;;
13238;SDS011;6686;51.292;4.166;2023-09-07T12:47:26;4.10;;;3.40;;
13238;SDS011;6686;51.292;4.166;2023-09-07T12:50:12;4.12;;;3.70;;
13238;SDS011;6686;51.292;4.166;2023-09-07T12:52:58;3.90;;;3.50;;
13238;SDS011;6686;51.292;4.166;2023-09-07T12:55:44;4.03;;;3.60;;
13238;SDS011;6686;51.292;4.166;2023-09-07T12:58:30;4.47;;;3.83;;
13238;SDS011;6686;51.292;4.166;2023-09-07T13:01:16;4.47;;;4.07;;
13238;SDS011;6686;51.292;4.166;2023-09-07T13:04:02;5.20;;;4.05;;
13238;SDS011;6686;51.292;4.166;2023-09-07T13:06:49;5.62;;;4.03;;
13238;SDS011;6686;51.292;4.166;2023-09-07T13:09:35;7.22;;;3.70;;
13238;SDS011;6686;51.292;4.166;2023-09-07T13:12:21;5.13;;;3.63;;
13238;SDS011;6686;51.292;4.166;2023-09-07T13:15:07;4.30;;;3.90;;
13238;SDS011;6686;51.292;4.166;2023-09-07T13:17:53;6.53;;;4.07;;
13238;SDS011;6686;51.292;4.166;2023-09-07T13:20:42;7.12;;;4.07;;
13238;SDS011;6686;51.292;4.166;2023-09-07T13:23:28;5.28;;;3.30;;
13238;SDS011;6686;51.292;4.166;2023-09-07T13:26:14;3.55;;;3.05;;
13238;SDS011;6686;51.292;4.166;2023-09-07T13:29:01;4.93;;;3.70;;
13238;SDS011;6686;51.292;4.166;2023-09-07T13:31:47;5.50;;;3.83;;
13238;SDS011;6686;51.292;4.166;2023-09-07T13:34:33;4.97;;;3.50;;
13238;SDS011;6686;51.292;4.166;2023-09-07T13:37:19;3.50;;;3.20;;
13238;SDS011;6686;51.292;4.166;2023-09-07T13:40:05;4.68;;;3.33;;
13238;SDS011;6686;51.292;4.166;2023-09-07T13:42:51;3.97;;;3.05;;
13238;SDS011;6686;51.292;4.166;2023-09-07T13:45:37;4.28;;;3.55;;
13238;SDS011;6686;51.292;4.166;2023-09-07T13:48:23;4.43;;;3.37;;
13238;SDS011;6686;51.292;4.166;2023-09-07T13:51:09;3.45;;;3.12;;
13238;SDS011;6686;51.292;4.166;2023-09-07T13:53:55;3.78;;;3.30;;
13238;SDS011;6686;51.292;4.166;2023-09-07T13:56:43;3.60;;;3.30;;
13238;SDS011;6686;51.292;4.166;2023-09-07T13:59:29;3.20;;;2.90;;
13238;SDS011;6686;51.292;4.166;2023-09-07T14:02:15;5.97;;;3.33;;
13238;SDS011;6686;51.292;4.166;2023-09-07T14:05:01;3.58;;;3.05;;
13238;SDS011;6686;51.292;4.166;2023-09-07T14:07:47;5.70;;;3.45;;
13238;SDS011;6686;51.292;4.166;2023-09-07T14:10:33;4.97;;;2.95;;
13238;SDS011;6686;51.292;4.166;2023-09-07T14:13:19;3.53;;;3.22;;
13238;SDS011;6686;51.292;4.166;2023-09-07T14:16:05;4.68;;;3.25;;
13238;SDS011;6686;51.292;4.166;2023-09-07T14:18:51;6.15;;;2.87;;
13238;SDS011;6686;51.292;4.166;2023-09-07T14:21:38;4.50;;;3.00;;
13238;SDS011;6686;51.292;4.166;2023-09-07T14:24:24;3.50;;;3.05;;
13238;SDS011;6686;51.292;4.166;2023-09-07T14:27:09;3.97;;;3.22;;
13238;SDS011;6686;51.292;4.166;2023-09-07T14:29:55;3.80;;;3.10;;
13238;SDS011;6686;51.292;4.166;2023-09-07T14:32:41;4.60;;;3.33;;
13238;SDS011;6686;51.292;4.166;2023-09-07T14:35:27;4.60;;;3.25;;
13238;SDS011;6686;51.292;4.166;2023-09-07T14:38:13;5.00;;;3.22;;
13238;SDS011;6686;51.292;4.166;2023-09-07T14:40:59;4.78;;;3.60;;
13238;SDS011;6686;51.292;4.166;2023-09-07T14:43:45;3.87;;;3.35;;
13238;SDS011;6686;51.292;4.166;2023-09-07T14:46:31;4.60;;;3.47;;
13238;SDS011;6686;51.292;4.166;2023-09-07T14:49:17;4.10;;;3.17;;
13238;SDS011;6686;51.292;4.166;2023-09-07T14:52:03;5.45;;;3.53;;
13238;SDS011;6686;51.292;4.166;2023-09-07T14:54:50;3.72;;;3.28;;
13238;SDS011;6686;51.292;4.166;2023-09-07T14:57:36;5.57;;;3.80;;
13238;SDS011;6686;51.292;4.166;2023-09-07T15:00:23;4.12;;;3.60;;
13238;SDS011;6686;51.292;4.166;2023-09-07T15:03:08;5.00;;;3.70;;
13238;SDS011;6686;51.292;4.166;2023-09-07T15:05:55;4.25;;;3.85;;
13238;SDS011;6686;51.292;4.166;2023-09-07T15:08:41;4.85;;;3.30;;
13238;SDS011;6686;51.292;4.166;2023-09-07T15:11:27;4.15;;;3.85;;
13238;SDS011;6686;51.292;4.166;2023-09-07T15:14:13;5.57;;;3.65;;
13238;SDS011;6686;51.292;4.166;2023-09-07T15:16:59;6.03;;;3.58;;
13238;SDS011;6686;51.292;4.166;2023-09-07T15:19:48;5.28;;;3.65;;
13238;SDS011;6686;51.292;4.166;2023-09-07T15:22:35;5.55;;;3.37;;
13238;SDS011;6686;51.292;4.166;2023-09-07T15:25:20;5.07;;;3.60;;
13238;SDS011;6686;51.292;4.166;2023-09-07T15:28:07;6.12;;;3.45;;
13238;SDS011;6686;51.292;4.166;2023-09-07T15:30:52;5.05;;;3.65;;
13238;SDS011;6686;51.292;4.166;2023-09-07T15:33:38;3.85;;;3.40;;
13238;SDS011;6686;51.292;4.166;2023-09-07T15:36:24;6.00;;;3.90;;
13238;SDS011;6686;51.292;4.166;2023-09-07T15:39:10;4.40;;;3.80;;
13238;SDS011;6686;51.292;4.166;2023-09-07T15:41:56;4.18;;;3.72;;
13238;SDS011;6686;51.292;4.166;2023-09-07T15:44:42;6.15;;;3.85;;
13238;SDS011;6686;51.292;4.166;2023-09-07T15:47:28;5.60;;;3.90;;
13238;SDS011;6686;51.292;4.166;2023-09-07T15:50:14;4.32;;;3.80;;
13238;SDS011;6686;51.292;4.166;2023-09-07T15:53:00;5.20;;;3.53;;
13238;SDS011;6686;51.292;4.166;2023-09-07T15:55:46;5.10;;;3.55;;
13238;SDS011;6686;51.292;4.166;2023-09-07T15:58:34;5.40;;;3.50;;
13238;SDS011;6686;51.292;4.166;2023-09-07T16:01:20;5.50;;;3.85;;
13238;SDS011;6686;51.292;4.166;2023-09-07T16:04:06;4.30;;;3.90;;
13238;SDS011;6686;51.292;4.166;2023-09-07T16:06:52;3.95;;;3.60;;
13238;SDS011;6686;51.292;4.166;2023-09-07T16:09:38;4.87;;;3.92;;
13238;SDS011;6686;51.292;4.166;2023-09-07T16:12:24;6.68;;;3.83;;
13238;SDS011;6686;51.292;4.166;2023-09-07T16:15:10;3.80;;;3.50;;
13238;SDS011;6686;51.292;4.166;2023-09-07T16:17:56;8.10;;;4.12;;
13238;SDS011;6686;51.292;4.166;2023-09-07T16:20:42;5.00;;;3.85;;
13238;SDS011;6686;51.292;4.166;2023-09-07T16:23:28;6.82;;;3.62;;
13238;SDS011;6686;51.292;4.166;2023-09-07T16:26:14;6.35;;;4.30;;
13238;SDS011;6686;51.292;4.166;2023-09-07T16:29:00;5.12;;;3.80;;
13238;SDS011;6686;51.292;4.166;2023-09-07T16:31:46;9.85;;;3.67;;
13238;SDS011;6686;51.292;4.166;2023-09-07T16:34:32;5.78;;;3.50;;
13238;SDS011;6686;51.292;4.166;2023-09-07T16:37:17;5.45;;;4.20;;
13238;SDS011;6686;51.292;4.166;2023-09-07T16:40:03;6.85;;;4.07;;
13238;SDS011;6686;51.292;4.166;2023-09-07T16:42:51;5.40;;;3.90;;
13238;SDS011;6686;51.292;4.166;2023-09-07T16:45:37;8.48;;;4.62;;
13238;SDS011;6686;51.292;4.166;2023-09-07T16:48:26;6.70;;;3.90;;
13238;SDS011;6686;51.292;4.166;2023-09-07T16:51:11;5.22;;;4.47;;
13238;SDS011;6686;51.292;4.166;2023-09-07T16:53:57;5.40;;;4.47;;